createdAt,value
2016-05-11T00:00:33.496Z,20.02
2016-05-11T00:01:33.389Z,20.03
2016-05-11T00:02:33.533Z,20.1
2016-05-11T00:03:33.567Z,20.13
2016-05-11T00:04:33.585Z,20.06
2016-05-11T00:05:33.619Z,20.02
2016-05-11T00:06:33.637Z,20.01
2016-05-11T00:07:33.671Z,20.1
2016-05-11T00:08:33.690Z,20.02
2016-05-11T00:09:33.395Z,20.1
2016-05-11T00:10:33.741Z,19.99
2016-05-11T00:11:33.761Z,20.06
2016-05-11T00:12:33.794Z,20.1
2016-05-11T00:13:33.655Z,20.05
2016-05-11T00:14:33.691Z,20.05
2016-05-11T00:15:33.865Z,20.01
2016-05-11T00:16:33.883Z,20.01
2016-05-11T00:17:33.916Z,20.01
2016-05-11T00:18:33.966Z,20.05
2016-05-11T00:19:33.969Z,20.05
2016-05-11T00:20:33.987Z,20.06
2016-05-11T00:21:34.021Z,20.08
2016-05-11T00:22:33.743Z,20.02
2016-05-11T00:23:34.057Z,20.05
2016-05-11T00:24:34.093Z,20.11
2016-05-11T00:25:34.110Z,20.06
2016-05-11T00:26:33.988Z,20.03
2016-05-11T00:27:34.179Z,20.1
2016-05-11T00:28:34.196Z,20.05
2016-05-11T00:29:34.246Z,20.05
2016-05-11T00:30:34.280Z,20.08
2016-05-11T00:31:34.126Z,20.03
2016-05-11T00:32:34.301Z,20.11
2016-05-11T00:33:34.320Z,20.08
2016-05-11T00:34:34.337Z,20.13
2016-05-11T00:35:34.372Z,20.05
2016-05-11T00:36:34.390Z,20.02
2016-05-11T00:37:34.267Z,20.06
2016-05-11T00:38:34.286Z,20.06
2016-05-11T00:39:34.476Z,20.08
2016-05-11T00:40:34.338Z,20.08
2016-05-11T00:41:34.513Z,20.05
2016-05-11T00:42:34.546Z,20.11
2016-05-11T00:43:34.566Z,20.01
2016-05-11T00:44:34.614Z,20.06
2016-05-11T00:45:35.211Z,20.02
2016-05-11T00:46:34.652Z,20.1
2016-05-11T00:47:34.669Z,20.05
2016-05-11T00:48:34.688Z,20.02
2016-05-11T00:49:34.707Z,20.02
2016-05-11T00:50:34.740Z,20.03
2016-05-11T00:51:34.758Z,20.02
2016-05-11T00:52:34.792Z,20.05
2016-05-11T00:53:34.810Z,20.01
2016-05-11T00:54:34.845Z,19.99
2016-05-11T00:55:34.879Z,20.02
2016-05-11T00:56:34.896Z,20.03
2016-05-11T00:57:34.915Z,20.05
2016-05-11T00:58:34.793Z,19.98
2016-05-11T00:59:34.967Z,20.03
2016-05-11T01:00:35.361Z,20.03
2016-05-11T01:01:35.019Z,20.01
2016-05-11T01:02:34.897Z,19.91
2016-05-11T01:03:34.915Z,20.06
2016-05-11T01:04:35.106Z,20.05
2016-05-11T01:05:35.125Z,19.99
2016-05-11T01:06:35.142Z,20.01
2016-05-11T01:07:35.161Z,19.96
2016-05-11T01:08:35.178Z,20.05
2016-05-11T01:09:35.072Z,19.96
2016-05-11T01:10:35.091Z,19.99
2016-05-11T01:11:35.266Z,20.06
2016-05-11T01:12:35.300Z,19.94
2016-05-11T01:13:35.317Z,19.92
2016-05-11T01:14:35.352Z,19.96
2016-05-11T01:15:35.932Z,19.91
2016-05-11T01:16:35.389Z,20.01
2016-05-11T01:17:35.312Z,19.94
2016-05-11T01:18:35.440Z,19.95
2016-05-11T01:19:35.458Z,19.98
2016-05-11T01:20:35.493Z,20.02
2016-05-11T01:21:35.511Z,19.96
2016-05-11T01:22:35.560Z,19.95
2016-05-11T01:23:35.641Z,20.01
2016-05-11T01:24:35.596Z,19.94
2016-05-11T01:25:35.632Z,19.95
2016-05-11T01:26:35.477Z,19.98
2016-05-11T01:27:35.668Z,19.98
2016-05-11T01:28:35.530Z,19.95
2016-05-11T01:29:35.720Z,20.01
2016-05-11T01:30:36.331Z,19.98
2016-05-11T01:31:35.772Z,19.95
2016-05-11T01:32:35.791Z,19.99
2016-05-11T01:33:35.809Z,19.94
2016-05-11T01:34:35.843Z,19.94
2016-05-11T01:35:35.720Z,19.95
2016-05-11T01:36:35.911Z,19.99
2016-05-11T01:37:35.913Z,19.88
2016-05-11T01:38:35.948Z,19.94
2016-05-11T01:39:35.966Z,19.94
2016-05-11T01:40:35.843Z,19.92
2016-05-11T01:41:36.018Z,19.94
2016-05-11T01:42:36.052Z,19.94
2016-05-11T01:43:35.914Z,19.94
2016-05-11T01:44:35.948Z,19.91
2016-05-11T01:45:36.138Z,19.95
2016-05-11T01:46:36.140Z,19.92
2016-05-11T01:47:36.158Z,19.91
2016-05-11T01:48:36.194Z,19.94
2016-05-11T01:49:36.211Z,19.99
2016-05-11T01:50:36.261Z,19.96
2016-05-11T01:51:36.263Z,19.96
2016-05-11T01:52:36.297Z,19.92
2016-05-11T01:53:36.316Z,19.92
2016-05-11T01:54:36.349Z,19.91
2016-05-11T01:55:36.384Z,19.95
2016-05-11T01:56:36.387Z,19.88
2016-05-11T01:57:36.421Z,19.99
2016-05-11T01:58:36.454Z,19.96
2016-05-11T01:59:36.473Z,19.94
2016-05-11T02:00:36.897Z,19.92
2016-05-11T02:01:36.525Z,19.94
2016-05-11T02:02:36.542Z,19.95
2016-05-11T02:03:36.593Z,19.91
2016-05-11T02:04:36.596Z,19.88
2016-05-11T02:05:36.473Z,19.95
2016-05-11T02:06:36.491Z,19.88
2016-05-11T02:07:36.666Z,19.88
2016-05-11T02:08:36.684Z,19.91
2016-05-11T02:09:36.561Z,19.91
2016-05-11T02:10:36.736Z,19.95
2016-05-11T02:11:36.755Z,19.91
2016-05-11T02:12:36.789Z,19.92
2016-05-11T02:13:36.822Z,19.87
2016-05-11T02:14:36.888Z,19.92
2016-05-11T02:15:36.750Z,19.87
2016-05-11T02:16:36.894Z,19.86
2016-05-11T02:17:36.911Z,19.87
2016-05-11T02:18:36.946Z,19.88
2016-05-11T02:19:36.808Z,19.88
2016-05-11T02:20:36.997Z,19.92
2016-05-11T02:21:37.016Z,19.96
2016-05-11T02:22:37.035Z,19.94
2016-05-11T02:23:37.052Z,19.84
2016-05-11T02:24:37.087Z,19.84
2016-05-11T02:25:37.120Z,19.84
2016-05-11T02:26:37.138Z,19.84
2016-05-11T02:27:37.016Z,19.83
2016-05-11T02:28:37.191Z,19.88
2016-05-11T02:29:37.209Z,19.87
2016-05-11T02:30:37.665Z,19.81
2016-05-11T02:31:37.262Z,19.84
2016-05-11T02:32:37.296Z,19.84
2016-05-11T02:33:37.157Z,19.84
2016-05-11T02:34:37.332Z,19.83
2016-05-11T02:35:37.366Z,19.84
2016-05-11T02:36:37.384Z,19.84
2016-05-11T02:37:37.418Z,19.87
2016-05-11T02:38:37.437Z,19.86
2016-05-11T02:39:37.456Z,19.84
2016-05-11T02:40:37.333Z,19.87
2016-05-11T02:41:37.508Z,19.84
2016-05-11T02:42:37.541Z,19.8
2016-05-11T02:43:37.559Z,19.87
2016-05-11T02:44:37.608Z,19.84
2016-05-11T02:45:37.628Z,19.81
2016-05-11T02:46:37.630Z,19.84
2016-05-11T02:47:37.664Z,19.87
2016-05-11T02:48:37.683Z,19.86
2016-05-11T02:49:37.700Z,19.87
2016-05-11T02:50:37.735Z,19.84
2016-05-11T02:51:37.753Z,19.84
2016-05-11T02:52:37.787Z,19.87
2016-05-11T02:53:37.805Z,19.84
2016-05-11T02:54:37.824Z,19.81
2016-05-11T02:55:37.888Z,19.81
2016-05-11T02:56:37.876Z,19.81
2016-05-11T02:57:37.893Z,19.74
2016-05-11T02:58:37.944Z,19.8
2016-05-11T02:59:37.963Z,19.78
2016-05-11T03:00:37.996Z,19.8
2016-05-11T03:01:38.014Z,19.83
2016-05-11T03:02:38.032Z,19.8
2016-05-11T03:03:38.050Z,19.78
2016-05-11T03:04:38.084Z,19.8
2016-05-11T03:05:38.104Z,19.76
2016-05-11T03:06:38.137Z,19.81
2016-05-11T03:07:38.156Z,19.84
2016-05-11T03:08:38.173Z,19.71
2016-05-11T03:09:38.239Z,19.74
2016-05-11T03:10:38.225Z,19.8
2016-05-11T03:11:38.259Z,19.8
2016-05-11T03:12:38.278Z,19.77
2016-05-11T03:13:38.156Z,19.77
2016-05-11T03:14:38.330Z,19.83
2016-05-11T03:15:38.208Z,19.76
2016-05-11T03:16:38.383Z,19.71
2016-05-11T03:17:38.401Z,19.76
2016-05-11T03:18:38.419Z,19.8
2016-05-11T03:19:38.469Z,19.74
2016-05-11T03:20:38.471Z,19.81
2016-05-11T03:21:38.490Z,19.77
2016-05-11T03:22:38.524Z,19.77
2016-05-11T03:23:38.557Z,19.77
2016-05-11T03:24:38.420Z,19.77
2016-05-11T03:25:38.594Z,19.8
2016-05-11T03:26:38.629Z,19.78
2016-05-11T03:27:38.647Z,19.77
2016-05-11T03:28:38.680Z,19.78
2016-05-11T03:29:38.714Z,19.81
2016-05-11T03:30:38.942Z,19.74
2016-05-11T03:31:38.797Z,19.71
2016-05-11T03:32:38.870Z,19.69
2016-05-11T03:33:38.913Z,19.71
2016-05-11T03:34:38.830Z,19.65
2016-05-11T03:35:39.040Z,19.68
2016-05-11T03:36:38.932Z,19.77
2016-05-11T03:37:39.121Z,19.69
2016-05-11T03:38:39.200Z,19.76
2016-05-11T03:39:39.061Z,19.69
2016-05-11T03:40:39.232Z,19.71
2016-05-11T03:41:39.272Z,19.65
2016-05-11T03:42:39.154Z,19.63
2016-05-11T03:43:39.334Z,19.66
2016-05-11T03:44:39.357Z,19.65
2016-05-11T03:45:39.239Z,19.69
2016-05-11T03:46:39.260Z,19.73
2016-05-11T03:47:39.436Z,19.62
2016-05-11T03:48:39.471Z,19.61
2016-05-11T03:49:39.492Z,19.62
2016-05-11T03:50:39.528Z,19.66
2016-05-11T03:51:39.545Z,19.62
2016-05-11T03:52:39.581Z,19.65
2016-05-11T03:53:39.599Z,19.63
2016-05-11T03:54:39.618Z,19.68
2016-05-11T03:55:39.652Z,19.59
2016-05-11T03:56:39.671Z,19.65
2016-05-11T03:57:39.705Z,19.63
2016-05-11T03:58:39.567Z,19.62
2016-05-11T03:59:39.758Z,19.68
2016-05-11T04:00:39.621Z,19.63
2016-05-11T04:01:39.795Z,19.63
2016-05-11T04:02:39.673Z,19.65
2016-05-11T04:03:39.848Z,19.62
2016-05-11T04:04:39.913Z,19.62
2016-05-11T04:05:39.899Z,19.63
2016-05-11T04:06:39.918Z,19.63
2016-05-11T04:07:39.953Z,19.59
2016-05-11T04:08:39.814Z,19.66
2016-05-11T04:09:40.005Z,19.63
2016-05-11T04:10:40.022Z,19.5
2016-05-11T04:11:40.040Z,19.51
2016-05-11T04:12:40.074Z,19.54
2016-05-11T04:13:40.094Z,19.62
2016-05-11T04:14:40.111Z,19.5
2016-05-11T04:15:40.146Z,19.51
2016-05-11T04:16:40.163Z,19.46
2016-05-11T04:17:40.198Z,19.51
2016-05-11T04:18:40.216Z,19.47
2016-05-11T04:19:40.234Z,19.5
2016-05-11T04:20:40.268Z,19.5
2016-05-11T04:21:40.287Z,19.47
2016-05-11T04:22:40.304Z,19.47
2016-05-11T04:23:40.339Z,19.54
2016-05-11T04:24:40.373Z,19.48
2016-05-11T04:25:40.391Z,19.5
2016-05-11T04:26:40.410Z,19.51
2016-05-11T04:27:40.459Z,19.47
2016-05-11T04:28:40.478Z,19.5
2016-05-11T04:29:40.495Z,19.56
2016-05-11T04:30:40.358Z,19.58
2016-05-11T04:31:40.375Z,19.54
2016-05-11T04:32:40.567Z,19.5
2016-05-11T04:33:40.584Z,19.51
2016-05-11T04:34:40.618Z,19.58
2016-05-11T04:35:40.636Z,19.51
2016-05-11T04:36:40.655Z,19.55
2016-05-11T04:37:40.516Z,19.51
2016-05-11T04:38:40.708Z,19.58
2016-05-11T04:39:40.741Z,19.51
2016-05-11T04:40:40.760Z,19.5
2016-05-11T04:41:40.622Z,19.56
2016-05-11T04:42:40.811Z,19.51
2016-05-11T04:43:40.830Z,19.43
2016-05-11T04:44:40.692Z,19.5
2016-05-11T04:45:40.757Z,19.47
2016-05-11T04:46:40.932Z,19.56
2016-05-11T04:47:40.935Z,19.56
2016-05-11T04:48:40.952Z,19.61
2016-05-11T04:49:40.971Z,19.5
2016-05-11T04:50:41.005Z,19.47
2016-05-11T04:51:41.023Z,19.51
2016-05-11T04:52:41.042Z,19.51
2016-05-11T04:53:41.076Z,19.5
2016-05-11T04:54:41.109Z,19.51
2016-05-11T04:55:41.129Z,19.44
2016-05-11T04:56:41.145Z,19.5
2016-05-11T04:57:41.181Z,19.48
2016-05-11T04:58:41.198Z,19.54
2016-05-11T04:59:41.217Z,19.51
2016-05-11T05:00:41.313Z,19.48
2016-05-11T05:01:41.113Z,19.5
2016-05-11T05:02:41.303Z,19.58
2016-05-11T05:03:41.322Z,19.54
2016-05-11T05:04:41.184Z,19.55
2016-05-11T05:05:41.373Z,19.61
2016-05-11T05:06:41.236Z,19.63
2016-05-11T05:07:41.425Z,19.59
2016-05-11T05:08:41.444Z,19.62
2016-05-11T05:09:41.478Z,19.63
2016-05-11T05:10:41.512Z,19.68
2016-05-11T05:11:41.561Z,19.65
2016-05-11T05:12:41.549Z,19.73
2016-05-11T05:13:41.567Z,19.68
2016-05-11T05:14:41.585Z,19.73
2016-05-11T05:15:42.057Z,19.69
2016-05-11T05:16:41.653Z,19.68
2016-05-11T05:17:41.671Z,19.88
2016-05-11T05:18:42.174Z,19.87
2016-05-11T05:19:41.708Z,19.99
2016-05-11T05:20:41.585Z,20.01
2016-05-11T05:21:41.620Z,20.1
2016-05-11T05:22:41.826Z,20.17
2016-05-11T05:23:41.656Z,20.26
2016-05-11T05:24:41.847Z,20.31
2016-05-11T05:25:41.723Z,20.39
2016-05-11T05:26:41.899Z,20.43
2016-05-11T05:27:41.761Z,20.57
2016-05-11T05:28:41.779Z,20.67
2016-05-11T05:29:41.969Z,20.66
2016-05-11T05:30:42.004Z,20.87
2016-05-11T05:31:41.865Z,20.92
2016-05-11T05:32:42.056Z,20.92
2016-05-11T05:33:42.059Z,20.97
2016-05-11T05:34:42.092Z,20.97
2016-05-11T05:35:42.126Z,21.03
2016-05-11T05:36:42.144Z,21.09
2016-05-11T05:37:42.178Z,21.1
2016-05-11T05:38:42.197Z,21.19
2016-05-11T05:39:42.215Z,21.21
2016-05-11T05:40:42.249Z,21.29
2016-05-11T05:41:42.267Z,21.34
2016-05-11T05:42:42.302Z,21.47
2016-05-11T05:43:42.163Z,21.56
2016-05-11T05:44:42.182Z,21.59
2016-05-11T05:45:42.388Z,21.71
2016-05-11T05:46:42.405Z,21.75
2016-05-11T05:47:42.424Z,21.8
2016-05-11T05:48:42.302Z,21.92
2016-05-11T05:49:42.477Z,21.92
2016-05-11T05:50:42.510Z,22.12
2016-05-11T05:51:42.529Z,22.15
2016-05-11T05:52:42.562Z,22.3
2016-05-11T05:53:42.581Z,22.43
2016-05-11T05:54:42.615Z,22.49
2016-05-11T05:55:42.632Z,22.6
2016-05-11T05:56:42.667Z,22.61
2016-05-11T05:57:42.685Z,22.61
2016-05-11T05:58:42.719Z,22.85
2016-05-11T05:59:42.581Z,22.9
2016-05-11T06:00:42.631Z,23.01
2016-05-11T06:01:42.805Z,23.07
2016-05-11T06:02:42.824Z,23.17
2016-05-11T06:03:42.686Z,23.27
2016-05-11T06:04:42.876Z,23.4
2016-05-11T06:05:42.909Z,23.5
2016-05-11T06:06:42.928Z,23.58
2016-05-11T06:07:42.962Z,23.65
2016-05-11T06:08:42.980Z,23.69
2016-05-11T06:09:42.875Z,23.85
2016-05-11T06:10:43.033Z,23.88
2016-05-11T06:11:43.097Z,23.9
2016-05-11T06:12:43.101Z,24.08
2016-05-11T06:13:43.119Z,24.08
2016-05-11T06:14:43.138Z,24.18
2016-05-11T06:15:43.015Z,24.28
2016-05-11T06:16:43.346Z,24.34
2016-05-11T06:17:43.255Z,24.31
2016-05-11T06:18:43.257Z,24.39
2016-05-11T06:19:43.058Z,24.34
2016-05-11T06:20:46.465Z,24.35
2016-05-11T06:21:47.531Z,24.42
2016-05-11T06:22:44.238Z,24.35
2016-05-11T06:23:44.177Z,24.43
2016-05-11T06:24:46.210Z,24.37
2016-05-11T06:25:47.573Z,24.4
2016-05-11T06:26:43.404Z,24.46
2016-05-11T06:27:43.204Z,24.55
2016-05-11T06:28:43.566Z,24.6
2016-05-11T06:29:43.412Z,24.64
2016-05-11T06:30:43.727Z,24.88
2016-05-11T06:31:43.448Z,24.84
2016-05-11T06:32:43.640Z,24.87
2016-05-11T06:33:43.673Z,24.95
2016-05-11T06:34:43.692Z,25.08
2016-05-11T06:35:43.726Z,25.15
2016-05-11T06:36:43.743Z,25.2
2016-05-11T06:37:43.793Z,25.39
2016-05-11T06:38:43.655Z,25.39
2016-05-11T06:39:43.830Z,25.4
2016-05-11T06:40:43.864Z,25.43
2016-05-11T06:41:43.741Z,25.51
2016-05-11T06:42:43.775Z,25.57
2016-05-11T06:43:43.949Z,25.6
2016-05-11T06:44:43.983Z,25.55
2016-05-11T06:45:44.331Z,25.6
2016-05-11T06:46:44.052Z,25.61
2016-05-11T06:47:44.070Z,25.62
2016-05-11T06:48:44.088Z,25.65
2016-05-11T06:49:44.122Z,25.8
2016-05-11T06:50:44.156Z,25.85
2016-05-11T06:51:44.190Z,25.92
2016-05-11T06:52:44.208Z,25.88
2016-05-11T06:53:44.227Z,25.95
2016-05-11T06:54:44.120Z,26.02
2016-05-11T06:55:44.294Z,26.07
2016-05-11T06:56:44.329Z,26.1
2016-05-11T06:57:44.346Z,26.2
2016-05-11T06:58:44.381Z,26.15
2016-05-11T06:59:44.399Z,26.29
2016-05-11T07:00:44.652Z,26.29
2016-05-11T07:01:44.483Z,26.45
2016-05-11T07:02:44.344Z,26.39
2016-05-11T07:03:44.520Z,26.39
2016-05-11T07:04:44.413Z,26.4
2016-05-11T07:05:44.571Z,26.52
2016-05-11T07:06:44.621Z,26.67
2016-05-11T07:07:44.655Z,26.6
2016-05-11T07:08:44.517Z,26.81
2016-05-11T07:09:44.707Z,26.69
2016-05-11T07:10:44.569Z,26.8
2016-05-11T07:11:44.603Z,26.8
2016-05-11T07:12:44.793Z,26.84
2016-05-11T07:13:44.656Z,26.92
2016-05-11T07:14:44.845Z,26.99
2016-05-11T07:15:44.958Z,26.94
2016-05-11T07:16:44.913Z,27
2016-05-11T07:17:44.932Z,27.03
2016-05-11T07:18:44.981Z,27.02
2016-05-11T07:19:44.999Z,27.1
2016-05-11T07:20:45.033Z,27.1
2016-05-11T07:21:45.068Z,27.13
2016-05-11T07:22:45.085Z,27.14
2016-05-11T07:23:45.119Z,27.24
2016-05-11T07:24:45.154Z,27.28
2016-05-11T07:25:45.187Z,27.27
2016-05-11T07:26:45.222Z,27.22
2016-05-11T07:27:45.241Z,27.24
2016-05-11T07:28:45.274Z,27.28
2016-05-11T07:29:45.307Z,27.31
2016-05-11T07:30:45.342Z,27.27
2016-05-11T07:31:45.657Z,27.34
2016-05-11T07:32:45.393Z,27.37
2016-05-11T07:33:45.443Z,27.36
2016-05-11T07:34:45.462Z,27.34
2016-05-11T07:35:45.496Z,27.47
2016-05-11T07:36:45.514Z,27.47
2016-05-11T07:37:45.564Z,27.49
2016-05-11T07:38:45.582Z,27.36
2016-05-11T07:39:45.617Z,27.44
2016-05-11T07:40:45.494Z,27.41
2016-05-11T07:41:45.668Z,27.47
2016-05-11T07:42:45.718Z,27.46
2016-05-11T07:43:45.580Z,27.47
2016-05-11T07:44:45.755Z,27.51
2016-05-11T07:45:45.773Z,27.51
2016-05-11T07:46:45.823Z,27.43
2016-05-11T07:47:45.841Z,27.49
2016-05-11T07:48:45.891Z,27.46
2016-05-11T07:49:45.908Z,27.46
2016-05-11T07:50:45.942Z,27.31
2016-05-11T07:51:45.663Z,27.09
2016-05-11T07:52:46.010Z,27.18
2016-05-11T07:53:46.030Z,27.34
2016-05-11T07:54:46.063Z,27.37
2016-05-11T07:55:46.097Z,27.41
2016-05-11T07:56:46.130Z,27.46
2016-05-11T07:57:46.164Z,27.5
2016-05-11T07:58:46.183Z,27.51
2016-05-11T07:59:46.217Z,27.59
2016-05-11T08:00:45.938Z,27.54
2016-05-11T08:01:46.285Z,27.44
2016-05-11T08:02:46.303Z,27.57
2016-05-11T08:03:46.352Z,27.59
2016-05-11T08:04:46.355Z,27.6
2016-05-11T08:05:46.390Z,27.57
2016-05-11T08:06:46.423Z,27.62
2016-05-11T08:07:46.457Z,27.62
2016-05-11T08:08:46.490Z,27.47
2016-05-11T08:09:46.525Z,27.62
2016-05-11T08:10:46.543Z,27.51
2016-05-11T08:11:46.421Z,27.5
2016-05-11T08:12:46.611Z,27.54
2016-05-11T08:13:46.629Z,27.47
2016-05-11T08:14:46.679Z,27.44
2016-05-11T08:15:47.244Z,27.51
2016-05-11T08:16:46.731Z,27.44
2016-05-11T08:17:46.750Z,27.51
2016-05-11T08:18:46.783Z,27.5
2016-05-11T08:19:46.849Z,27.55
2016-05-11T08:20:46.852Z,27.46
2016-05-11T08:21:46.900Z,27.47
2016-05-11T08:22:46.903Z,27.5
2016-05-11T08:23:46.781Z,27.41
2016-05-11T08:24:46.816Z,27.47
2016-05-11T08:25:46.990Z,27.34
2016-05-11T08:26:47.024Z,27.31
2016-05-11T08:27:47.058Z,27.34
2016-05-11T08:28:47.091Z,27.36
2016-05-11T08:29:46.954Z,27.36
2016-05-11T08:30:47.941Z,27.29
2016-05-11T08:31:47.177Z,27.18
2016-05-11T08:32:47.212Z,27.07
2016-05-11T08:33:47.074Z,27.06
2016-05-11T08:34:47.107Z,26.97
2016-05-11T08:35:47.126Z,26.85
2016-05-11T08:36:47.316Z,26.89
2016-05-11T08:37:47.350Z,26.81
2016-05-11T08:38:47.212Z,26.88
2016-05-11T08:39:47.403Z,26.91
2016-05-11T08:40:47.437Z,26.89
2016-05-11T08:41:47.470Z,26.84
2016-05-11T08:42:47.504Z,26.76
2016-05-11T08:43:47.539Z,26.73
2016-05-11T08:44:47.556Z,26.75
2016-05-11T08:45:47.294Z,26.72
2016-05-11T08:46:47.625Z,26.66
2016-05-11T08:47:47.642Z,26.6
2016-05-11T08:48:47.678Z,26.65
2016-05-11T08:49:47.711Z,26.63
2016-05-11T08:50:47.744Z,26.55
2016-05-11T08:51:47.778Z,26.5
2016-05-11T08:52:47.797Z,26.5
2016-05-11T08:53:47.674Z,26.44
2016-05-11T08:54:47.849Z,26.44
2016-05-11T08:55:47.883Z,26.43
2016-05-11T08:56:47.761Z,26.43
2016-05-11T08:57:47.794Z,26.32
2016-05-11T08:58:47.985Z,26.32
2016-05-11T08:59:47.847Z,26.29
2016-05-11T09:00:48.380Z,26.2
2016-05-11T09:01:48.071Z,26.18
2016-05-11T09:02:47.793Z,26.17
2016-05-11T09:03:47.968Z,26.18
2016-05-11T09:04:48.173Z,26.12
2016-05-11T09:05:48.175Z,26.12
2016-05-11T09:06:48.226Z,26.07
2016-05-11T09:07:48.243Z,26.05
2016-05-11T09:08:48.464Z,25.91
2016-05-11T09:09:51.171Z,25.91
2016-05-11T09:10:48.376Z,25.91
2016-05-11T09:11:48.364Z,25.95
2016-05-11T09:12:48.382Z,25.92
2016-05-11T09:13:48.415Z,25.92
2016-05-11T09:14:48.450Z,25.85
2016-05-11T09:15:48.467Z,25.92
2016-05-11T09:16:48.517Z,25.77
2016-05-11T09:17:48.536Z,25.85
2016-05-11T09:18:48.413Z,25.79
2016-05-11T09:19:48.589Z,25.79
2016-05-11T09:20:48.622Z,25.8
2016-05-11T09:21:48.656Z,25.79
2016-05-11T09:22:48.519Z,25.76
2016-05-11T09:23:48.708Z,25.73
2016-05-11T09:24:48.727Z,25.76
2016-05-11T09:25:48.761Z,25.67
2016-05-11T09:26:48.825Z,25.69
2016-05-11T09:27:48.828Z,25.67
2016-05-11T09:28:48.863Z,25.69
2016-05-11T09:29:48.880Z,25.62
2016-05-11T09:30:48.915Z,25.54
2016-05-11T09:31:48.793Z,25.55
2016-05-11T09:32:48.982Z,25.5
2016-05-11T09:33:49.001Z,25.43
2016-05-11T09:34:49.035Z,25.42
2016-05-11T09:35:48.912Z,25.32
2016-05-11T09:36:48.931Z,25.27
2016-05-11T09:37:49.120Z,25.23
2016-05-11T09:38:49.140Z,25.21
2016-05-11T09:39:49.174Z,25.09
2016-05-11T09:40:49.051Z,25.1
2016-05-11T09:41:49.070Z,25.06
2016-05-11T09:42:49.103Z,25.09
2016-05-11T09:43:49.293Z,25.17
2016-05-11T09:44:49.327Z,25.18
2016-05-11T09:45:49.705Z,25.13
2016-05-11T09:46:49.395Z,25.13
2016-05-11T09:47:49.414Z,25.09
2016-05-11T09:48:49.447Z,25.2
2016-05-11T09:49:49.153Z,25.14
2016-05-11T09:50:49.500Z,25.13
2016-05-11T09:51:49.518Z,25.13
2016-05-11T09:52:49.395Z,25.13
2016-05-11T09:53:49.586Z,25.06
2016-05-11T09:54:49.635Z,25.15
2016-05-11T09:55:49.638Z,25.15
2016-05-11T09:56:49.672Z,25.08
2016-05-11T09:57:49.706Z,25.14
2016-05-11T09:58:49.724Z,25.13
2016-05-11T09:59:49.602Z,25.13
2016-05-11T10:00:49.479Z,25.14
2016-05-11T10:01:49.669Z,24.85
2016-05-11T10:02:49.844Z,24.81
2016-05-11T10:03:49.909Z,24.76
2016-05-11T10:04:49.913Z,24.88
2016-05-11T10:05:49.930Z,24.99
2016-05-11T10:06:49.949Z,25.03
2016-05-11T10:07:49.983Z,24.96
2016-05-11T10:08:50.017Z,24.96
2016-05-11T10:09:50.035Z,24.99
2016-05-11T10:10:50.069Z,24.99
2016-05-11T10:11:50.103Z,24.96
2016-05-11T10:12:50.403Z,24.98
2016-05-11T10:13:50.156Z,24.95
2016-05-11T10:14:50.236Z,24.91
2016-05-11T10:15:50.364Z,24.95
2016-05-11T10:16:50.132Z,24.88
2016-05-11T10:17:50.275Z,24.9
2016-05-11T10:18:50.154Z,24.9
2016-05-11T10:19:50.359Z,24.96
2016-05-11T10:20:50.206Z,24.87
2016-05-11T10:21:50.395Z,24.81
2016-05-11T10:22:50.522Z,24.83
2016-05-11T10:23:50.433Z,24.85
2016-05-11T10:24:50.466Z,24.85
2016-05-11T10:25:50.875Z,24.85
2016-05-11T10:26:50.550Z,24.8
2016-05-11T10:27:50.411Z,24.84
2016-05-11T10:28:50.586Z,24.8
2016-05-11T10:29:50.464Z,24.8
2016-05-11T10:30:50.654Z,24.77
2016-05-11T10:32:49.689Z,24.73
2016-05-11T10:33:02.316Z,24.78
2016-05-11T10:34:02.350Z,24.69
2016-05-11T10:35:02.212Z,24.73
2016-05-11T10:36:02.419Z,24.68
2016-05-11T10:37:02.451Z,24.68
2016-05-11T10:38:02.455Z,24.64
2016-05-11T10:39:02.488Z,24.67
2016-05-11T10:40:02.522Z,24.64
2016-05-11T10:41:02.557Z,24.6
2016-05-11T10:42:02.575Z,24.64
2016-05-11T10:43:02.609Z,24.6
2016-05-11T10:44:02.751Z,24.6
2016-05-11T10:45:02.660Z,24.6
2016-05-11T10:46:02.976Z,24.6
2016-05-11T10:47:02.915Z,24.55
2016-05-11T10:48:02.809Z,24.55
2016-05-11T10:49:06.281Z,24.62
2016-05-11T10:50:02.815Z,24.6
2016-05-11T10:51:02.848Z,24.52
2016-05-11T10:52:02.867Z,24.47
2016-05-11T10:53:02.729Z,24.47
2016-05-11T10:54:03.795Z,24.57
2016-05-11T10:55:02.969Z,24.47
2016-05-11T10:56:02.987Z,24.57
2016-05-11T10:57:03.005Z,24.49
2016-05-11T10:58:03.039Z,24.5
2016-05-11T10:59:02.933Z,24.45
2016-05-11T11:00:03.092Z,24.43
2016-05-11T11:01:03.141Z,24.5
2016-05-11T11:02:03.160Z,24.5
2016-05-11T11:03:03.178Z,24.49
2016-05-11T11:04:04.056Z,24.55
2016-05-11T11:05:03.230Z,24.46
2016-05-11T11:06:03.264Z,24.5
2016-05-11T11:07:03.283Z,24.46
2016-05-11T11:08:03.316Z,24.46
2016-05-11T11:09:05.257Z,24.58
2016-05-11T11:10:03.384Z,24.46
2016-05-11T11:11:03.419Z,24.45
2016-05-11T11:12:03.437Z,24.46
2016-05-11T11:13:03.470Z,24.47
2016-05-11T11:14:04.958Z,24.47
2016-05-11T11:15:03.523Z,24.49
2016-05-11T11:16:03.556Z,24.43
2016-05-11T11:17:03.575Z,24.49
2016-05-11T11:18:03.610Z,24.49
2016-05-11T11:19:05.456Z,24.46
2016-05-11T11:20:03.661Z,24.45
2016-05-11T11:21:03.696Z,24.5
2016-05-11T11:22:03.729Z,24.46
2016-05-11T11:23:03.592Z,24.46
2016-05-11T11:24:04.562Z,24.43
2016-05-11T11:25:03.487Z,24.52
2016-05-11T11:26:03.834Z,24.45
2016-05-11T11:27:03.867Z,24.5
2016-05-11T11:28:03.886Z,24.52
2016-05-11T11:29:04.279Z,24.46
2016-05-11T11:30:03.953Z,24.5
2016-05-11T11:31:03.988Z,24.5
2016-05-11T11:32:04.006Z,24.47
2016-05-11T11:33:03.884Z,24.5
2016-05-11T11:34:04.933Z,24.61
2016-05-11T11:35:04.092Z,24.46
2016-05-11T11:36:03.969Z,24.47
2016-05-11T11:37:03.988Z,24.53
2016-05-11T11:38:04.022Z,24.53
2016-05-11T11:39:04.415Z,24.52
2016-05-11T11:40:04.246Z,24.46
2016-05-11T11:41:04.280Z,24.55
2016-05-11T11:42:04.299Z,24.49
2016-05-11T11:43:04.316Z,24.53
2016-05-11T11:44:04.413Z,24.61
2016-05-11T11:45:04.385Z,24.42
2016-05-11T11:46:04.107Z,24.47
2016-05-11T11:47:04.437Z,24.62
2016-05-11T11:48:04.455Z,24.57
2016-05-11T11:49:04.943Z,24.5
2016-05-11T11:50:04.523Z,24.61
2016-05-11T11:51:04.400Z,24.58
2016-05-11T11:52:04.591Z,24.57
2016-05-11T11:53:04.609Z,24.69
2016-05-11T11:54:05.643Z,24.71
2016-05-11T11:55:04.661Z,24.69
2016-05-11T11:56:04.696Z,24.78
2016-05-11T11:57:04.714Z,24.76
2016-05-11T11:58:04.747Z,24.76
2016-05-11T11:59:05.767Z,24.78
2016-05-11T12:00:06.973Z,24.85
2016-05-11T12:01:05.131Z,24.8
2016-05-11T12:02:07.305Z,24.83
2016-05-11T12:03:04.902Z,24.9
2016-05-11T12:04:04.920Z,24.88
2016-05-11T12:05:04.954Z,24.85
2016-05-11T12:06:04.972Z,24.87
2016-05-11T12:07:05.006Z,24.93
2016-05-11T12:08:05.041Z,24.9
2016-05-11T12:09:05.058Z,24.95
2016-05-11T12:10:04.936Z,24.95
2016-05-11T12:11:04.971Z,25
2016-05-11T12:12:05.145Z,25.05
2016-05-11T12:13:05.179Z,25.02
2016-05-11T12:14:05.197Z,24.98
2016-05-11T12:15:05.231Z,25.02
2016-05-11T12:16:05.421Z,24.98
2016-05-11T12:17:05.299Z,24.95
2016-05-11T12:18:05.223Z,24.99
2016-05-11T12:19:05.038Z,24.96
2016-05-11T12:20:05.385Z,25
2016-05-11T12:21:05.263Z,24.98
2016-05-11T12:22:05.437Z,25
2016-05-11T12:23:05.456Z,25
2016-05-11T12:24:05.349Z,25.05
2016-05-11T12:25:05.539Z,24.98
2016-05-11T12:26:05.557Z,24.96
2016-05-11T12:27:05.576Z,24.95
2016-05-11T12:28:05.610Z,25.03
2016-05-11T12:29:05.628Z,24.93
2016-05-11T12:30:05.678Z,24.99
2016-05-11T12:31:05.836Z,24.96
2016-05-11T12:32:05.745Z,24.99
2016-05-11T12:33:05.780Z,24.91
2016-05-11T12:34:05.782Z,24.96
2016-05-11T12:35:05.816Z,25.03
2016-05-11T12:36:05.850Z,25
2016-05-11T12:37:05.909Z,24.96
2016-05-11T12:38:05.866Z,24.98
2016-05-11T12:39:06.041Z,24.93
2016-05-11T12:40:06.122Z,24.96
2016-05-11T12:41:06.203Z,24.93
2016-05-11T12:42:06.283Z,24.88
2016-05-11T12:43:06.303Z,24.91
2016-05-11T12:44:06.384Z,24.93
2016-05-11T12:45:06.404Z,24.87
2016-05-11T12:46:06.299Z,24.91
2016-05-11T12:47:06.484Z,24.87
2016-05-11T12:48:06.540Z,24.85
2016-05-11T12:49:06.596Z,24.95
2016-05-11T12:50:06.574Z,25.02
2016-05-11T12:51:06.630Z,24.96
2016-05-11T12:52:06.667Z,24.98
2016-05-11T12:53:06.688Z,24.88
2016-05-11T12:54:06.707Z,25.03
2016-05-11T12:55:06.743Z,24.93
2016-05-11T12:56:06.764Z,25.02
2016-05-11T12:57:06.736Z,24.9